createdAt,value
2017-07-30T00:03:41.632Z,1001.61
2017-07-30T00:08:37.813Z,1001.63
2017-07-30T00:13:34.808Z,1001.53
2017-07-30T00:18:30.429Z,1001.51
2017-07-30T00:23:28.442Z,1001.43
2017-07-30T00:28:24.264Z,1001.51
2017-07-30T00:33:21.378Z,1001.47
2017-07-30T00:38:18.322Z,1001.42
2017-07-30T00:43:15.358Z,1001.58
2017-07-30T00:48:11.135Z,1001.47
2017-07-30T00:53:06.983Z,1001.32
2017-07-30T00:58:02.840Z,1001.14
2017-07-30T01:02:59.719Z,1001.05
2017-07-30T01:07:56.801Z,1001.02
2017-07-30T01:12:53.149Z,1001.00
2017-07-30T01:17:50.416Z,1000.96
2017-07-30T01:22:47.629Z,1000.97
2017-07-30T01:27:44.030Z,1000.98
2017-07-30T01:32:39.952Z,1000.91
2017-07-30T01:37:36.272Z,1000.78
2017-07-30T01:42:33.438Z,1000.76
2017-07-30T01:47:29.293Z,1000.69
2017-07-30T01:52:26.649Z,1000.73
2017-07-30T01:57:23.959Z,1000.68
2017-07-30T02:02:20.058Z,1000.65
2017-07-30T02:07:16.924Z,1000.61
2017-07-30T02:12:14.530Z,1000.51
2017-07-30T02:17:12.375Z,1000.41
2017-07-30T02:22:08.421Z,1000.47
2017-07-30T02:27:04.551Z,1000.33
2017-07-30T02:32:05.732Z,1000.23
2017-07-30T02:37:02.667Z,1000.28
2017-07-30T02:41:59.290Z,1000.24
2017-07-30T02:46:56.188Z,1000.22
2017-07-30T02:51:52.772Z,1000.27
2017-07-30T02:56:49.605Z,1000.16
2017-07-30T03:01:46.389Z,1000.06
2017-07-30T03:06:42.532Z,1000.04
2017-07-30T03:11:39.694Z,999.95
2017-07-30T03:16:35.430Z,999.86
2017-07-30T03:21:33.300Z,999.75
2017-07-30T03:26:28.938Z,999.70
2017-07-30T03:31:25.193Z,999.72
2017-07-30T03:36:23.136Z,999.55
2017-07-30T03:41:19.108Z,999.44
2017-07-30T03:46:15.227Z,999.53
2017-07-30T03:51:12.619Z,999.49
2017-07-30T03:56:08.557Z,999.49
2017-07-30T04:01:04.773Z,999.46
2017-07-30T04:06:00.668Z,999.50
2017-07-30T04:10:56.851Z,999.56
2017-07-30T04:15:52.890Z,999.53
2017-07-30T04:20:50.194Z,999.44
2017-07-30T04:25:46.840Z,999.45
2017-07-30T04:30:42.538Z,999.48
2017-07-30T04:35:38.989Z,999.41
2017-07-30T04:40:35.074Z,999.29
2017-07-30T04:45:33.148Z,999.35
2017-07-30T04:50:30.007Z,999.35
2017-07-30T04:55:27.081Z,999.23
2017-07-30T05:00:22.905Z,999.25
2017-07-30T05:05:20.551Z,999.11
2017-07-30T05:10:16.215Z,999.23
2017-07-30T05:15:12.493Z,999.16
2017-07-30T05:20:10.946Z,999.20
2017-07-30T05:25:07.014Z,999.19
2017-07-30T05:30:04.471Z,999.21
2017-07-30T05:35:00.457Z,999.22
2017-07-30T05:39:56.395Z,999.05
2017-07-30T05:44:52.488Z,999.04
2017-07-30T05:49:50.099Z,999.03
2017-07-30T05:54:46.105Z,999.12
2017-07-30T05:59:43.986Z,999.19
2017-07-30T06:04:40.529Z,999.13
2017-07-30T06:09:36.615Z,999.13
2017-07-30T06:14:34.358Z,999.11
2017-07-30T06:19:31.545Z,999.20
2017-07-30T06:24:27.463Z,999.19
2017-07-30T06:29:23.976Z,999.19
2017-07-30T06:34:20.109Z,998.99
2017-07-30T06:39:17.901Z,999.00
2017-07-30T06:44:14.656Z,999.02
2017-07-30T06:49:11.046Z,998.95
2017-07-30T06:54:07.125Z,998.97
2017-07-30T06:59:03.127Z,998.93
2017-07-30T07:04:00.347Z,998.99
2017-07-30T07:08:56.725Z,999.01
2017-07-30T07:13:52.989Z,999.18
2017-07-30T07:18:49.100Z,999.19
2017-07-30T07:23:45.331Z,999.33
2017-07-30T07:28:42.293Z,999.32
2017-07-30T07:33:40.010Z,999.35
2017-07-30T07:38:36.630Z,999.48
2017-07-30T07:43:32.681Z,999.53
2017-07-30T07:48:28.902Z,999.63
2017-07-30T07:53:25.188Z,999.74
2017-07-30T07:58:21.556Z,999.82
2017-07-30T08:03:17.493Z,999.76
2017-07-30T08:08:13.899Z,999.89
2017-07-30T08:13:11.480Z,999.97
2017-07-30T08:18:07.899Z,999.91
2017-07-30T08:23:04.830Z,999.95
2017-07-30T08:28:00.850Z,999.99
2017-07-30T08:32:57.090Z,999.97
2017-07-30T08:37:53.136Z,999.99
2017-07-30T08:42:49.283Z,999.94
2017-07-30T08:47:46.620Z,999.96
2017-07-30T08:52:43.156Z,1000.06
2017-07-30T08:57:40.728Z,1000.11
2017-07-30T09:02:37.716Z,1000.12
2017-07-30T09:07:34.576Z,1000.13
2017-07-30T09:12:31.538Z,1000.11
2017-07-30T09:17:26.927Z,1000.19
2017-07-30T09:22:22.557Z,1000.27
2017-07-30T09:27:18.905Z,1000.35
2017-07-30T09:32:16.894Z,1000.31
2017-07-30T09:37:12.757Z,1000.32
2017-07-30T09:42:10.654Z,1000.24
2017-07-30T09:47:08.613Z,1000.40
2017-07-30T09:52:06.293Z,1000.45
2017-07-30T09:57:06.066Z,1000.12
2017-07-30T10:02:01.681Z,1000.03
2017-07-30T10:06:57.113Z,999.97
2017-07-30T10:11:52.093Z,1000.13
2017-07-30T10:16:48.565Z,1000.16
2017-07-30T10:21:43.977Z,1000.20
2017-07-30T10:26:40.471Z,1000.14
2017-07-30T10:31:37.262Z,1000.24
2017-07-30T10:36:35.713Z,1000.25
2017-07-30T10:41:33.289Z,1000.39
2017-07-30T10:46:28.095Z,1000.37
2017-07-30T10:51:24.400Z,1000.24
2017-07-30T10:56:21.760Z,1000.21
2017-07-30T11:01:18.583Z,1000.27
2017-07-30T11:06:16.452Z,1000.29
2017-07-30T11:11:12.060Z,1000.20
2017-07-30T11:16:08.442Z,1000.28
2017-07-30T11:21:06.076Z,1000.15
2017-07-30T11:26:01.430Z,1000.19
2017-07-30T11:30:57.223Z,1000.31
2017-07-30T11:35:53.804Z,1000.41
2017-07-30T11:40:50.779Z,1000.34
2017-07-30T11:45:49.080Z,1000.34
2017-07-30T11:50:47.669Z,1000.28
2017-07-30T11:55:45.355Z,1000.49
2017-07-30T12:00:43.007Z,1000.55
2017-07-30T12:05:41.225Z,1000.55
2017-07-30T12:10:37.243Z,1000.58
2017-07-30T12:15:31.268Z,1000.62
2017-07-30T12:20:26.147Z,1000.73
2017-07-30T12:25:20.572Z,1000.88
2017-07-30T12:30:16.152Z,1000.91
2017-07-30T12:35:12.355Z,1000.93
2017-07-30T12:40:10.361Z,1001.08
2017-07-30T12:45:05.541Z,1001.22
2017-07-30T12:50:01.856Z,1001.19
2017-07-30T12:54:58.206Z,1001.29
2017-07-30T12:59:53.331Z,1001.28
2017-07-30T13:04:49.651Z,1001.22
2017-07-30T13:09:45.892Z,1001.45
2017-07-30T13:14:43.332Z,1001.36
2017-07-30T13:19:38.918Z,1001.41
2017-07-30T13:24:35.771Z,1001.51
2017-07-30T13:29:33.095Z,1001.46
2017-07-30T13:34:30.066Z,1001.50
2017-07-30T13:39:27.197Z,1001.51
2017-07-30T13:44:23.093Z,1001.57
2017-07-30T13:49:19.435Z,1001.49
2017-07-30T13:54:14.255Z,1001.51
2017-07-30T13:59:09.157Z,1001.63
2017-07-30T14:04:04.839Z,1001.85
2017-07-30T14:09:01.943Z,1001.90
2017-07-30T14:13:57.941Z,1001.80
2017-07-30T14:23:54.579Z,1001.87
2017-07-30T14:28:50.577Z,1001.89
2017-07-30T14:33:46.273Z,1001.92
2017-07-30T14:38:41.726Z,1002.04
2017-07-30T14:43:38.436Z,1002.14
2017-07-30T14:48:34.196Z,1002.23
2017-07-30T14:53:30.025Z,1002.17
2017-07-30T14:58:26.088Z,1002.22
2017-07-30T15:03:22.194Z,1002.35
2017-07-30T15:08:18.187Z,1002.15
2017-07-30T15:13:13.765Z,1002.08
2017-07-30T15:18:09.363Z,1002.13
2017-07-30T15:23:05.169Z,1002.23
2017-07-30T15:28:02.055Z,1002.17
2017-07-30T15:32:57.706Z,1002.11
2017-07-30T15:37:56.157Z,1002.20
2017-07-30T15:42:53.801Z,1002.26
2017-07-30T15:47:50.292Z,1002.13
2017-07-30T15:52:46.917Z,1002.15
2017-07-30T15:57:43.643Z,1002.23
2017-07-30T16:02:40.044Z,1002.27
2017-07-30T16:07:35.844Z,1002.28
2017-07-30T16:12:32.988Z,1002.39
2017-07-30T16:17:28.673Z,1002.50
2017-07-30T16:22:25.538Z,1002.54
2017-07-30T16:27:21.128Z,1002.46
2017-07-30T16:32:18.226Z,1002.49
2017-07-30T16:37:13.576Z,1002.33
2017-07-30T16:42:10.345Z,1002.56
2017-07-30T16:47:08.592Z,1002.53
2017-07-30T16:52:04.493Z,1002.72
2017-07-30T16:57:01.688Z,1002.89
2017-07-30T17:01:57.389Z,1002.98
2017-07-30T17:06:53.389Z,1002.88
2017-07-30T17:11:50.857Z,1003.05
2017-07-30T17:16:46.656Z,1003.15
2017-07-30T17:21:42.690Z,1003.16
2017-07-30T17:26:39.416Z,1003.21
2017-07-30T17:31:34.885Z,1003.27
2017-07-30T17:36:30.582Z,1003.35
2017-07-30T17:41:27.465Z,1003.27
2017-07-30T17:46:22.694Z,1003.31
2017-07-30T17:51:19.472Z,1003.48
2017-07-30T17:56:15.198Z,1003.62
2017-07-30T18:01:12.136Z,1003.72
2017-07-30T18:06:08.848Z,1003.79
2017-07-30T18:11:05.477Z,1003.81
2017-07-30T18:16:01.833Z,1003.90
2017-07-30T18:20:57.412Z,1003.91
2017-07-30T18:25:53.166Z,1003.98
2017-07-30T18:30:49.358Z,1004.06
2017-07-30T18:35:45.572Z,1004.09
2017-07-30T18:40:41.799Z,1004.12
2017-07-30T18:45:37.682Z,1004.17
2017-07-30T18:50:33.627Z,1004.18
2017-07-30T18:55:29.490Z,1004.21
2017-07-30T19:00:25.514Z,1004.16
2017-07-30T19:05:23.444Z,1004.28
2017-07-30T19:10:20.171Z,1004.25
2017-07-30T19:15:16.785Z,1004.32
2017-07-30T19:20:13.577Z,1004.35
2017-07-30T19:25:08.912Z,1004.29
2017-07-30T19:30:05.084Z,1004.24
2017-07-30T19:35:00.843Z,1004.29
2017-07-30T19:39:56.497Z,1004.37
2017-07-30T19:44:52.345Z,1004.48
2017-07-30T19:49:50.484Z,1004.46
2017-07-30T19:54:45.742Z,1004.59
2017-07-30T19:59:41.743Z,1004.71
2017-07-30T20:04:37.977Z,1004.70
2017-07-30T20:09:33.885Z,1004.67
2017-07-30T20:14:30.348Z,1004.63
2017-07-30T20:19:26.238Z,1004.63
2017-07-30T20:24:22.060Z,1004.72
2017-07-30T20:29:19.150Z,1004.66
2017-07-30T20:34:15.663Z,1004.74
2017-07-30T20:39:11.272Z,1004.75
2017-07-30T20:44:09.118Z,1004.75
2017-07-30T20:49:04.702Z,1004.87
2017-07-30T20:54:02.142Z,1004.92
2017-07-30T20:58:58.247Z,1004.87
2017-07-30T21:03:55.297Z,1004.92
2017-07-30T21:08:52.132Z,1005.02
2017-07-30T21:13:47.610Z,1004.92
2017-07-30T21:18:44.412Z,1004.89
2017-07-30T21:23:40.130Z,1004.98
2017-07-30T21:28:36.857Z,1005.01
2017-07-30T21:33:32.511Z,1004.92
2017-07-30T21:38:29.398Z,1005.04
2017-07-30T21:43:25.364Z,1005.10
2017-07-30T21:48:22.395Z,1005.17
2017-07-30T21:53:19.354Z,1005.05
2017-07-30T21:58:14.853Z,1005.09
2017-07-30T22:03:10.868Z,1005.10
2017-07-30T22:08:07.849Z,1005.17
2017-07-30T22:13:04.561Z,1005.21
2017-07-30T22:18:00.650Z,1005.24
2017-07-30T22:22:58.634Z,1005.25
2017-07-30T22:27:53.965Z,1005.43
2017-07-30T22:32:51.489Z,1005.54
2017-07-30T22:37:47.103Z,1005.45
2017-07-30T22:42:44.762Z,1005.50
2017-07-30T22:47:41.946Z,1005.58
2017-07-30T22:52:38.244Z,1005.39
2017-07-30T22:57:34.082Z,1005.72
2017-07-30T23:02:30.779Z,1005.75
2017-07-30T23:07:26.521Z,1005.76
2017-07-30T23:12:23.408Z,1005.85
2017-07-30T23:17:18.959Z,1005.83
2017-07-30T23:22:15.697Z,1006.10
2017-07-30T23:27:12.198Z,1005.81
2017-07-30T23:32:08.699Z,1005.85
2017-07-30T23:37:05.187Z,1005.90
2017-07-30T23:42:00.885Z,1005.91
2017-07-30T23:46:57.361Z,1005.87
2017-07-30T23:51:53.218Z,1005.68
2017-07-30T23:56:50.204Z,1005.61
